Time;durP1;ratioP1;P1;durP2;ratioP2;P2;SDS_P1;SDS_P2;PMS_P1;PMS_P2;Temp;Humidity;BMP_temperature;BMP_pressure;BME280_temperature;BME280_humidity;BME280_pressure;Samples;Min_cycle;Max_cycle;Signal;HPM_P1;HPM_P2
2023/03/11 00:02:09;;;;;;;22.85;12.60;;;;;;;8.93;nan;98482.19;5082781;28;20016;-74
2023/03/11 00:04:35;;;;;;;18.05;12.25;;;;;;;8.93;nan;98474.31;5078521;28;20390;-74
2023/03/11 00:07:00;;;;;;;23.13;13.13;;;;;;;8.86;nan;98471.97;5084384;28;20031;-75
2023/03/11 00:09:25;;;;;;;21.23;12.80;;;;;;;8.93;nan;98490.06;5080984;28;20157;-74
2023/03/11 00:11:51;;;;;;;19.85;12.05;;;;;;;8.86;nan;98471.16;5082408;28;20050;-74
2023/03/11 00:14:16;;;;;;;19.50;11.77;;;;;;;8.94;nan;98489.03;5081051;28;20031;-75
2023/03/11 00:16:41;;;;;;;27.90;12.55;;;;;;;8.94;nan;98484.56;5086717;28;20044;-74
2023/03/11 00:19:09;;;;;;;21.67;13.60;;;;;;;8.96;nan;98486.16;5082150;28;20100;-75
2023/03/11 00:21:34;;;;;;;20.90;13.50;;;;;;;8.84;nan;98470.66;5080962;28;20034;-75
2023/03/11 00:24:02;;;;;;;23.00;13.77;;;;;;;8.94;nan;98481.16;5078382;28;20020;-74
2023/03/11 00:26:27;;;;;;;23.08;13.35;;;;;;;8.87;nan;98472.75;5075743;28;20110;-74
2023/03/11 00:28:54;;;;;;;25.15;13.68;;;;;;;8.95;nan;98480.09;5082395;28;20588;-74
2023/03/11 00:31:21;;;;;;;25.85;14.13;;;;;;;8.87;nan;98459.63;5085739;28;20395;-75
2023/03/11 00:33:47;;;;;;;23.13;15.35;;;;;;;8.97;nan;98474.59;5083336;28;20735;-75
2023/03/11 00:36:23;;;;;;;26.42;16.25;;;;;;;8.96;nan;98476.44;5084720;28;20024;-75
2023/03/11 00:38:49;;;;;;;25.95;15.13;;;;;;;8.94;nan;98481.16;5082799;28;20112;-75
2023/03/11 00:41:15;;;;;;;26.40;15.65;;;;;;;8.97;nan;98487.72;5081598;28;20035;-75
2023/03/11 00:43:40;;;;;;;24.38;15.13;;;;;;;8.89;nan;98475.91;5082077;28;20028;-75
2023/03/11 00:46:06;;;;;;;29.00;15.85;;;;;;;8.96;nan;98486.94;5083368;28;20023;-75
2023/03/11 00:48:31;;;;;;;24.80;15.45;;;;;;;8.93;nan;98484.81;5084084;28;20035;-75
2023/03/11 00:50:57;;;;;;;26.17;15.63;;;;;;;8.91;nan;98479.84;5079839;28;20101;-74
2023/03/11 00:53:22;;;;;;;28.00;16.85;;;;;;;8.90;nan;98470.38;5076988;28;20112;-75
2023/03/11 00:55:47;;;;;;;27.05;15.75;;;;;;;8.86;nan;98463.28;5082296;28;22185;-75
2023/03/11 00:58:13;;;;;;;25.25;14.82;;;;;;;8.90;nan;98461.72;5079900;28;20115;-75
2023/03/11 01:00:39;;;;;;;25.98;16.02;;;;;;;8.80;nan;98440.72;5079476;28;20537;-75
2023/03/11 01:03:04;;;;;;;26.65;15.40;;;;;;;8.80;nan;98435.47;5081514;28;20020;-75
2023/03/11 01:05:32;;;;;;;27.48;15.95;;;;;;;8.90;nan;98457.25;5084853;28;20032;-75
2023/03/11 01:07:58;;;;;;;23.17;15.35;;;;;;;8.90;nan;98445.97;5085141;28;20027;-75
2023/03/11 01:10:24;;;;;;;28.60;15.50;;;;;;;8.83;nan;98433.09;5081305;28;20032;-75
2023/03/11 01:12:50;;;;;;;24.00;15.25;;;;;;;8.51;nan;98383.50;5081866;28;20382;-75
2023/03/11 01:15:26;;;;;;;27.33;15.75;;;;;;;8.86;nan;98437.84;5083016;28;20029;-75
2023/03/11 01:17:51;;;;;;;24.38;14.68;;;;;;;8.85;nan;98441.50;5078176;28;20067;-75
2023/03/11 01:20:17;;;;;;;22.90;14.55;;;;;;;8.80;nan;98438.09;5084279;28;20070;-75
2023/03/11 01:22:43;;;;;;;20.80;12.75;;;;;;;8.81;nan;98434.41;5082209;28;20035;-75
2023/03/11 01:25:14;;;;;;;22.30;12.57;;;;;;;8.89;nan;98449.66;5085899;28;20502;-74
2023/03/11 01:27:39;;;;;;;20.48;12.10;;;;;;;8.89;nan;98447.81;5100682;28;20023;-74
2023/03/11 01:30:05;;;;;;;23.05;13.05;;;;;;;8.88;nan;98453.31;5084214;28;20028;-75
2023/03/11 01:32:31;;;;;;;20.50;11.65;;;;;;;8.81;nan;98429.16;5078098;28;20024;-75
2023/03/11 01:34:56;;;;;;;22.23;12.98;;;;;;;8.64;nan;98405.78;5080507;28;20699;-75
2023/03/11 01:37:22;;;;;;;22.27;13.10;;;;;;;8.78;nan;98438.34;5083210;28;20116;-75
2023/03/11 01:39:47;;;;;;;22.90;13.48;;;;;;;8.84;nan;98452.28;5079197;28;20560;-75
2023/03/11 01:42:12;;;;;;;18.33;12.00;;;;;;;8.80;nan;98452.00;5081774;28;20626;-75
2023/03/11 01:44:38;;;;;;;19.73;11.52;;;;;;;8.88;nan;98474.31;5083347;28;20073;-75
2023/03/11 01:47:03;;;;;;;19.63;11.43;;;;;;;8.87;nan;98475.38;5082481;28;20042;-72
2023/03/11 01:49:28;;;;;;;20.80;12.00;;;;;;;8.79;nan;98468.81;5079758;28;20039;-73
2023/03/11 01:51:58;;;;;;;19.80;12.15;;;;;;;8.80;nan;98477.47;5080809;28;20394;-73
2023/03/11 01:54:27;;;;;;;20.02;12.93;;;;;;;8.78;nan;98474.31;5083481;28;20119;-73
2023/03/11 01:56:54;;;;;;;24.58;13.63;;;;;;;8.82;nan;98483.25;5082056;28;20076;-73
2023/03/11 01:59:26;;;;;;;21.05;12.90;;;;;;;8.72;nan;98469.06;5082068;28;20042;-73
2023/03/11 02:02:35;;;;;;;24.67;13.73;;;;;;;8.80;nan;98498.47;5080609;28;20067;-73
2023/03/11 02:05:01;;;;;;;34.05;16.98;;;;;;;8.72;nan;98487.44;5065913;28;20355;-73
2023/03/11 02:07:27;;;;;;;23.35;12.80;;;;;;;8.70;nan;98486.88;5079469;28;20545;-73
2023/03/11 02:09:52;;;;;;;22.42;13.65;;;;;;;8.78;nan;98501.34;5080436;28;20048;-73
2023/03/11 02:12:18;;;;;;;20.25;12.27;;;;;;;8.65;nan;98488.72;5076961;28;20026;-73
2023/03/11 02:14:48;;;;;;;20.02;12.93;;;;;;;8.71;nan;98500.78;5080619;28;20127;-73
2023/03/11 02:17:14;;;;;;;19.63;11.75;;;;;;;8.75;nan;98517.59;5081813;28;20093;-74
2023/03/11 02:20:07;;;;;;;16.00;10.05;;;;;;;8.74;nan;98518.66;5081276;28;20660;-73
2023/03/11 02:22:33;;;;;;;17.75;10.27;;;;;;;8.68;nan;98507.34;5080118;28;20031;-73
2023/03/11 02:25:04;;;;;;;21.75;10.50;;;;;;;8.72;nan;98513.66;5080073;28;20444;-73
2023/03/11 02:27:33;;;;;;;16.25;9.25;;;;;;;8.63;nan;98496.84;5075708;28;20035;-73
2023/03/11 02:29:59;;;;;;;13.75;9.00;;;;;;;8.47;nan;98476.84;5076340;28;20020;-73
2023/03/11 02:32:25;;;;;;;15.20;8.93;;;;;;;8.65;nan;98513.13;5082777;28;20028;-73
2023/03/11 02:34:51;;;;;;;14.07;9.48;;;;;;;8.65;nan;98507.09;5082090;28;20562;-73
2023/03/11 02:37:17;;;;;;;16.20;9.40;;;;;;;8.71;nan;98512.09;5080136;28;20441;-73
2023/03/11 02:39:45;;;;;;;16.80;9.18;;;;;;;8.71;nan;98512.09;5079073;28;20093;-72
2023/03/11 02:42:27;;;;;;;17.70;9.30;;;;;;;8.72;nan;98513.66;5077304;28;20047;-73
2023/03/11 02:45:00;;;;;;;13.23;8.55;;;;;;;8.64;nan;98500.25;5081155;28;20038;-73
2023/03/11 02:47:26;;;;;;;15.20;8.98;;;;;;;8.65;nan;98510.50;5084698;28;20036;-73
2023/03/11 02:49:54;;;;;;;17.00;8.95;;;;;;;8.68;nan;98517.84;5080860;28;20618;-73
2023/03/11 02:52:20;;;;;;;15.43;9.05;;;;;;;8.64;nan;98519.44;5082103;28;20104;-73
2023/03/11 02:54:46;;;;;;;15.32;8.90;;;;;;;8.65;nan;98510.50;5077788;28;20063;-72
2023/03/11 02:57:11;;;;;;;16.33;9.27;;;;;;;8.68;nan;98517.84;5084094;28;20047;-73
2023/03/11 02:59:36;;;;;;;15.15;8.82;;;;;;;8.56;nan;98504.16;5080301;28;20028;-72
2023/03/11 03:02:02;;;;;;;14.25;8.75;;;;;;;8.58;nan;98499.47;5087094;28;20023;-73
2023/03/11 03:04:27;;;;;;;13.60;8.15;;;;;;;8.68;nan;98517.84;5078704;28;20032;-73
2023/03/11 03:06:53;;;;;;;13.93;7.78;;;;;;;8.61;nan;98517.28;5087655;28;20258;-73
2023/03/11 03:09:18;;;;;;;15.63;8.25;;;;;;;8.67;nan;98518.91;5083416;28;20024;-73
2023/03/11 03:11:43;;;;;;;13.30;7.90;;;;;;;8.65;nan;98515.75;5085385;28;20024;-73
2023/03/11 03:14:09;;;;;;;13.82;8.10;;;;;;;8.64;nan;98522.06;5086296;28;20023;-73
2023/03/11 03:16:34;;;;;;;15.02;8.23;;;;;;;8.64;nan;98521.25;5082853;28;20091;-72
2023/03/11 03:18:59;;;;;;;13.43;7.72;;;;;;;8.59;nan;98523.84;5089611;28;20017;-72
2023/03/11 03:21:25;;;;;;;10.95;7.63;;;;;;;8.67;nan;98529.41;5082010;28;20037;-72
2023/03/11 03:23:50;;;;;;;12.27;7.32;;;;;;;8.64;nan;98527.31;5080514;28;20031;-72
2023/03/11 03:26:16;;;;;;;12.15;7.65;;;;;;;8.60;nan;98531.47;5081955;28;20035;-72
2023/03/11 03:28:41;;;;;;;12.18;8.15;;;;;;;8.45;nan;98498.13;5081410;28;20052;-74
2023/03/11 03:31:09;;;;;;;12.32;7.97;;;;;;;8.69;nan;98539.63;5082160;28;20028;-72
2023/03/11 03:33:35;;;;;;;13.43;7.85;;;;;;;8.69;nan;98547.50;5098344;28;20450;-72
2023/03/11 03:36:06;;;;;;;12.57;7.93;;;;;;;8.68;nan;98551.97;5084873;28;20103;-72
2023/03/11 03:38:31;;;;;;;13.15;7.90;;;;;;;8.61;nan;98540.91;5082780;28;20042;-73
2023/03/11 03:40:57;;;;;;;14.05;7.88;;;;;;;8.65;nan;98539.34;5083970;28;20903;-73
2023/03/11 03:43:22;;;;;;;14.38;8.02;;;;;;;8.63;nan;98544.06;5083360;28;20020;-73
2023/03/11 03:46:00;;;;;;;12.30;7.35;;;;;;;8.66;nan;98545.38;5082574;28;20032;-73
2023/03/11 03:48:26;;;;;;;13.02;7.50;;;;;;;8.61;nan;98537.50;5085832;28;20028;-72
2023/03/11 03:50:51;;;;;;;12.85;7.70;;;;;;;8.69;nan;98555.34;5082809;28;20504;-73
2023/03/11 03:53:17;;;;;;;13.43;7.70;;;;;;;8.71;nan;98563.78;5078643;28;20024;-73
2023/03/11 03:55:42;;;;;;;18.40;7.93;;;;;;;8.69;nan;98569.28;5085795;28;20522;-73
2023/03/11 03:58:07;;;;;;;14.35;8.40;;;;;;;8.60;nan;98551.69;5082404;28;20486;-73
2023/03/11 04:00:33;;;;;;;15.13;8.70;;;;;;;8.67;nan;98560.88;5082620;28;20066;-71
2023/03/11 04:02:58;;;;;;;12.07;7.30;;;;;;;8.46;nan;98533.00;5079689;28;21077;-73
2023/03/11 04:05:25;;;;;;;13.18;7.55;;;;;;;8.59;nan;98545.63;5084207;28;20024;-72
2023/03/11 04:07:51;;;;;;;16.13;7.97;;;;;;;8.62;nan;98555.63;5095070;27;20111;-72
2023/03/11 04:10:17;;;;;;;11.30;7.15;;;;;;;8.41;nan;98533.75;5081769;28;20126;-73
2023/03/11 04:12:42;;;;;;;12.75;7.45;;;;;;;8.64;nan;98566.66;5084226;28;20371;-73
2023/03/11 04:15:08;;;;;;;14.00;7.97;;;;;;;8.67;nan;98571.38;5081887;28;20074;-72
2023/03/11 04:17:34;;;;;;;13.07;7.97;;;;;;;8.63;nan;98564.28;5086300;28;20524;-72
2023/03/11 04:19:59;;;;;;;13.50;7.63;;;;;;;8.64;nan;98574.53;5080908;28;20805;-73
2023/03/11 04:22:24;;;;;;;13.02;7.72;;;;;;;8.69;nan;98582.41;5080425;28;20059;-73
2023/03/11 04:24:50;;;;;;;14.23;7.72;;;;;;;8.57;nan;98570.53;5083861;28;20031;-72
2023/03/11 04:27:15;;;;;;;12.02;7.15;;;;;;;8.55;nan;98576.06;5082147;28;20119;-71
2023/03/11 04:29:40;;;;;;;14.30;7.35;;;;;;;8.67;nan;98592.38;5079391;28;20537;-72
2023/03/11 04:32:06;;;;;;;12.48;7.75;;;;;;;8.58;nan;98578.16;5083426;28;20066;-73
2023/03/11 04:34:31;;;;;;;14.45;7.38;;;;;;;8.59;nan;98582.34;5079139;28;20024;-74
2023/03/11 04:36:57;;;;;;;13.20;7.72;;;;;;;8.42;nan;98555.53;5080963;28;20028;-73
2023/03/11 04:39:22;;;;;;;13.68;7.10;;;;;;;8.61;nan;98582.88;5079098;28;20025;-73
2023/03/11 04:41:48;;;;;;;11.98;6.65;;;;;;;8.60;nan;98583.94;5078221;28;20024;-74
2023/03/11 04:44:13;;;;;;;12.82;7.28;;;;;;;8.60;nan;98591.81;5081890;28;20036;-72
2023/03/11 04:46:39;;;;;;;13.35;6.97;;;;;;;8.60;nan;98580.53;5081436;28;20034;-72
2023/03/11 04:49:04;;;;;;;31.98;14.80;;;;;;;8.54;nan;98569.22;5085118;28;20533;-73
2023/03/11 04:51:30;;;;;;;16.23;9.50;;;;;;;8.59;nan;98574.47;5078417;28;20028;-72
2023/03/11 04:53:55;;;;;;;12.13;6.85;;;;;;;8.62;nan;98575.81;5077997;28;20496;-72
2023/03/11 04:56:20;;;;;;;10.43;6.40;;;;;;;8.64;nan;98600.75;5085162;28;20111;-73
2023/03/11 04:58:46;;;;;;;13.93;8.02;;;;;;;8.63;nan;98601.78;5080660;28;20028;-73
2023/03/11 05:01:11;;;;;;;9.95;6.53;;;;;;;8.63;nan;98611.50;5083009;28;20025;-73
2023/03/11 05:03:37;;;;;;;9.85;5.97;;;;;;;8.60;nan;98601.53;5082154;28;20032;-73
2023/03/11 05:06:02;;;;;;;10.70;5.82;;;;;;;8.61;nan;98627.50;5081079;28;20120;-73
2023/03/11 05:08:28;;;;;;;14.60;7.10;;;;;;;8.56;nan;98622.22;5083541;28;20034;-73
2023/03/11 05:10:53;;;;;;;13.73;6.30;;;;;;;8.55;nan;98615.41;5081826;28;20035;-73
2023/03/11 05:13:19;;;;;;;10.00;6.57;;;;;;;8.55;nan;98615.41;5077382;28;20044;-73
2023/03/11 05:15:46;;;;;;;11.45;6.90;;;;;;;8.61;nan;98630.13;5083458;28;20065;-73
2023/03/11 05:18:12;;;;;;;12.00;6.93;;;;;;;8.48;nan;98605.16;5085235;28;20634;-73
2023/03/11 05:20:37;;;;;;;11.68;7.22;;;;;;;8.61;nan;98617.00;5082519;28;20027;-73
2023/03/11 05:23:03;;;;;;;16.33;10.18;;;;;;;8.51;nan;98602.00;5082501;28;20111;-73
2023/03/11 05:25:28;;;;;;;23.45;13.52;;;;;;;8.55;nan;98596.25;5081772;28;20031;-73
2023/03/11 05:27:54;;;;;;;16.27;10.25;;;;;;;8.57;nan;98599.41;5084553;28;20032;-73
2023/03/11 05:30:19;;;;;;;15.43;10.25;;;;;;;8.57;nan;98608.09;5079099;28;20024;-74
2023/03/11 05:32:44;;;;;;;11.90;7.22;;;;;;;8.59;nan;98600.72;5077876;28;20069;-73
2023/03/11 05:35:10;;;;;;;11.75;7.68;;;;;;;8.59;nan;98598.09;5083307;28;20046;-73
2023/03/11 05:37:37;;;;;;;12.13;7.13;;;;;;;8.29;nan;98559.38;5084559;28;20139;-73
2023/03/11 05:40:05;;;;;;;16.17;8.52;;;;;;;8.67;nan;98616.00;5079111;28;20441;-74
2023/03/11 05:42:31;;;;;;;14.27;8.77;;;;;;;8.59;nan;98603.34;5078149;28;20015;-73
2023/03/11 05:44:57;;;;;;;12.75;8.00;;;;;;;8.64;nan;98605.19;5079524;28;20936;-73
2023/03/11 05:47:22;;;;;;;10.98;7.10;;;;;;;8.52;nan;98590.47;5079701;28;20024;-72
2023/03/11 05:49:48;;;;;;;14.05;7.07;;;;;;;8.65;nan;98612.03;5073643;28;20035;-73
2023/03/11 05:52:13;;;;;;;13.18;6.40;;;;;;;8.63;nan;98612.28;5081064;28;20209;-72
2023/03/11 05:54:39;;;;;;;10.15;6.15;;;;;;;8.59;nan;98629.56;5083795;28;20405;-73
2023/03/11 05:57:04;;;;;;;9.20;6.25;;;;;;;8.52;nan;98621.16;5082141;28;20038;-73
2023/03/11 05:59:31;;;;;;;11.93;6.38;;;;;;;8.55;nan;98628.53;5081419;28;20020;-73
2023/03/11 06:01:57;;;;;;;9.40;6.20;;;;;;;8.59;nan;98650.56;5081131;28;20546;-73
2023/03/11 06:04:23;;;;;;;8.40;5.28;;;;;;;8.47;nan;98647.34;5081746;28;20036;-73
2023/03/11 06:06:48;;;;;;;8.30;5.68;;;;;;;8.48;nan;98643.72;5078786;28;20031;-73
2023/03/11 06:09:14;;;;;;;7.35;4.78;;;;;;;8.42;nan;98642.88;5079704;28;20020;-72
2023/03/11 06:11:40;;;;;;;7.65;4.13;;;;;;;8.52;nan;98661.31;5079207;28;20031;-73
2023/03/11 06:14:06;;;;;;;5.20;3.63;;;;;;;8.55;nan;98667.06;5085158;28;20020;-72
2023/03/11 06:16:31;;;;;;;5.15;3.50;;;;;;;8.59;nan;98663.69;5079113;28;20080;-73
2023/03/11 06:18:59;;;;;;;6.82;4.32;;;;;;;8.61;nan;98669.47;5081177;28;20020;-72
2023/03/11 06:21:25;;;;;;;7.10;3.75;;;;;;;8.70;nan;98672.41;5081327;28;20020;-73
2023/03/11 06:23:51;;;;;;;6.93;3.75;;;;;;;8.80;nan;98679.53;5083386;28;20024;-73
2023/03/11 06:26:19;;;;;;;5.97;4.05;;;;;;;8.81;nan;98663.56;5079185;28;20042;-73
2023/03/11 06:28:45;;;;;;;7.68;4.18;;;;;;;8.93;nan;98660.69;5079978;28;20035;-73
2023/03/11 06:31:15;;;;;;;8.68;4.15;;;;;;;8.90;nan;98669.88;5082086;28;20465;-73
2023/03/11 06:33:41;;;;;;;5.72;3.10;;;;;;;9.03;nan;98681.75;5075969;28;20055;-73
2023/03/11 06:36:07;;;;;;;4.65;2.70;;;;;;;9.07;nan;98703.81;5075860;28;20063;-72
2023/03/11 06:38:33;;;;;;;6.25;3.03;;;;;;;9.08;nan;98692.28;5077281;28;20024;-69
2023/03/11 06:41:01;;;;;;;5.55;2.63;;;;;;;9.16;nan;98690.97;5080123;28;20054;-68
2023/03/11 06:43:27;;;;;;;5.15;2.60;;;;;;;9.17;nan;98703.09;5078283;28;20056;-68
2023/03/11 06:45:52;;;;;;;4.95;3.00;;;;;;;9.19;nan;98703.59;5078940;28;20031;-68
2023/03/11 06:48:17;;;;;;;3.28;1.90;;;;;;;9.24;nan;98703.63;5083089;28;20031;-69
2023/03/11 06:50:43;;;;;;;2.95;1.77;;;;;;;9.30;nan;98715.72;5083425;28;20593;-69
2023/03/11 06:53:08;;;;;;;5.35;3.10;;;;;;;9.33;nan;98701.28;5082150;28;20024;-69
2023/03/11 06:55:34;;;;;;;6.97;2.17;;;;;;;9.30;nan;98692.09;5081245;28;20534;-69
2023/03/11 06:58:00;;;;;;;4.28;1.98;;;;;;;9.40;nan;98707.09;5076321;28;21513;-69
2023/03/11 07:00:25;;;;;;;4.97;1.80;;;;;;;9.43;nan;98703.94;5079484;28;20040;-69
2023/03/11 07:02:51;;;;;;;2.72;1.58;;;;;;;9.53;nan;98725.00;5079301;28;20032;-70
2023/03/11 07:05:16;;;;;;;3.50;1.55;;;;;;;9.49;nan;98715.25;5080909;28;20024;-69
2023/03/11 07:07:42;;;;;;;5.55;2.00;;;;;;;9.58;nan;98740.78;5078807;28;20024;-69
2023/03/11 07:10:08;;;;;;;6.75;2.28;;;;;;;9.52;nan;98744.41;5079133;28;20124;-69
2023/03/11 07:12:33;;;;;;;7.43;2.75;;;;;;;9.60;nan;98758.91;5094618;28;20028;-68
2023/03/11 07:14:59;;;;;;;5.60;2.53;;;;;;;9.61;nan;98759.72;5081145;28;20036;-70
2023/03/11 07:17:25;;;;;;;6.03;2.65;;;;;;;9.59;nan;98758.09;5079402;28;20116;-68
2023/03/11 07:19:51;;;;;;;5.00;2.20;;;;;;;9.56;nan;98758.63;5076487;28;20028;-69
2023/03/11 07:22:17;;;;;;;8.65;2.55;;;;;;;9.55;nan;98770.19;5075695;28;20035;-69
2023/03/11 07:24:47;;;;;;;4.03;1.77;;;;;;;9.50;nan;98785.94;5076941;28;20024;-72
2023/03/11 07:27:13;;;;;;;4.75;1.05;;;;;;;9.41;nan;98769.09;5079638;28;20032;-72
2023/03/11 07:29:39;;;;;;;8.00;1.95;;;;;;;9.13;nan;98781.56;5077564;28;20047;-73
2023/03/11 07:32:06;;;;;;;4.05;1.00;;;;;;;9.03;nan;98823.53;5079266;28;20483;-73
2023/03/11 07:34:31;;;;;;;2.38;0.88;;;;;;;8.86;nan;98813.19;5081512;28;20617;-73
2023/03/11 07:36:57;;;;;;;7.80;1.13;;;;;;;8.72;nan;98820.69;5078130;28;20031;-72
2023/03/11 07:39:22;;;;;;;4.18;1.17;;;;;;;8.67;nan;98835.63;5079114;28;20782;-72
2023/03/11 07:41:47;;;;;;;15.52;1.25;;;;;;;8.50;nan;98841.00;5077328;28;20024;-72
2023/03/11 07:44:14;;;;;;;6.18;0.90;;;;;;;8.46;nan;98834.66;5082397;28;20385;-73
2023/03/11 07:46:40;;;;;;;5.07;1.23;;;;;;;8.29;nan;98832.91;5083376;28;20278;-72
2023/03/11 07:49:06;;;;;;;6.22;0.85;;;;;;;8.35;nan;98875.69;5080777;28;20661;-73
2023/03/11 07:51:33;;;;;;;4.93;1.08;;;;;;;8.09;nan;98851.03;5085230;28;20032;-73
2023/03/11 07:54:00;;;;;;;4.75;0.73;;;;;;;8.07;nan;98881.97;5082508;28;20048;-72
2023/03/11 07:56:29;;;;;;;8.40;0.80;;;;;;;7.71;nan;98839.63;5082510;28;20481;-73
2023/03/11 07:58:54;;;;;;;3.53;0.70;;;;;;;7.55;nan;98848.34;5081872;28;20032;-73
2023/03/11 08:01:22;;;;;;;7.40;0.68;;;;;;;7.63;nan;98867.03;5082936;28;20058;-73
2023/03/11 08:03:50;;;;;;;9.23;1.27;;;;;;;7.61;nan;98892.69;5083087;28;20019;-73
2023/03/11 08:06:20;;;;;;;3.70;1.05;;;;;;;7.54;nan;98901.75;5079663;28;20090;-72
2023/03/11 08:08:46;;;;;;;6.40;0.77;;;;;;;7.42;nan;98910.50;5084523;28;20024;-72
2023/03/11 08:11:12;;;;;;;7.47;0.95;;;;;;;7.37;nan;98901.78;5082070;28;20063;-72
2023/03/11 08:13:43;;;;;;;4.60;1.25;;;;;;;7.29;nan;98895.13;5083342;28;20028;-72
2023/03/11 08:16:11;;;;;;;4.22;0.63;;;;;;;7.15;nan;98894.66;5084663;28;20044;-73
2023/03/11 08:18:36;;;;;;;9.02;0.95;;;;;;;7.07;nan;98889.84;5083452;28;20642;-73
2023/03/11 08:21:11;;;;;;;4.80;1.30;;;;;;;7.16;nan;98914.59;5076940;28;20020;-72
2023/03/11 08:23:37;;;;;;;6.40;1.00;;;;;;;7.07;nan;98908.16;5082071;28;20498;-73
2023/03/11 08:26:07;;;;;;;3.67;0.68;;;;;;;7.07;nan;98918.63;5083505;28;20027;-74
2023/03/11 08:28:32;;;;;;;3.33;0.60;;;;;;;6.97;nan;98900.94;5083125;28;20526;-71
2023/03/11 08:30:59;;;;;;;9.27;0.70;;;;;;;7.03;nan;98923.53;5082350;28;20056;-72
2023/03/11 08:33:24;;;;;;;2.65;0.45;;;;;;;6.95;nan;98920.53;5084147;28;20020;-73
2023/03/11 08:35:49;;;;;;;1.13;0.52;;;;;;;7.00;nan;98941.53;5083408;28;20355;-72
2023/03/11 08:38:15;;;;;;;4.35;0.70;;;;;;;6.90;nan;98925.69;5078006;28;20055;-72
2023/03/11 08:40:40;;;;;;;6.68;0.98;;;;;;;6.81;nan;98917.41;5083791;28;20051;-72
2023/03/11 08:43:06;;;;;;;11.25;1.25;;;;;;;6.89;nan;98935.34;5082295;28;20074;-73
2023/03/11 08:45:32;;;;;;;1.17;0.70;;;;;;;6.90;nan;98959.69;5077678;28;20031;-73
2023/03/11 08:47:57;;;;;;;4.05;1.00;;;;;;;6.78;nan;98938.81;5077612;28;20032;-73
2023/03/11 08:50:23;;;;;;;5.20;1.05;;;;;;;6.52;nan;98922.69;5080590;28;20371;-76
2023/03/11 08:52:48;;;;;;;6.03;0.95;;;;;;;6.72;nan;98976.38;5081809;28;20065;-74
2023/03/11 08:55:17;;;;;;;6.53;0.80;;;;;;;6.24;nan;98928.69;5083395;28;20033;-74
2023/03/11 08:57:43;;;;;;;2.47;0.63;;;;;;;6.22;nan;98969.94;5078650;28;20024;-73
2023/03/11 09:00:11;;;;;;;5.13;1.00;;;;;;;6.18;nan;98987.13;5085279;28;20273;-74
2023/03/11 09:02:36;;;;;;;6.55;1.00;;;;;;;5.94;nan;98952.41;5077467;28;20020;-74
2023/03/11 09:05:02;;;;;;;4.72;0.55;;;;;;;6.05;nan;98998.63;5084799;28;20051;-74
2023/03/11 09:07:27;;;;;;;4.38;0.60;;;;;;;5.98;nan;98987.50;5081904;28;20122;-73
2023/03/11 09:09:53;;;;;;;7.05;0.65;;;;;;;5.88;nan;98989.88;5080999;28;20224;-74
2023/03/11 09:12:19;;;;;;;6.35;0.77;;;;;;;5.93;nan;99001.22;5083667;28;20210;-74
2023/03/11 09:14:44;;;;;;;1.55;0.88;;;;;;;5.88;nan;99000.31;5080717;28;20498;-73
2023/03/11 09:17:11;;;;;;;3.92;1.30;;;;;;;5.75;nan;98968.19;5081007;28;20231;-75
2023/03/11 09:19:36;;;;;;;10.88;1.25;;;;;;;5.99;nan;99004.00;5083461;28;20058;-73
2023/03/11 09:22:02;;;;;;;3.65;1.08;;;;;;;6.03;nan;99005.09;5084915;28;20024;-74
2023/03/11 09:24:28;;;;;;;5.35;1.10;;;;;;;5.85;nan;99001.56;5081472;28;20038;-76
2023/03/11 09:26:54;;;;;;;4.78;1.13;;;;;;;5.89;nan;99013.16;5084286;28;20032;-74
2023/03/11 09:29:19;;;;;;;6.53;1.63;;;;;;;5.97;nan;99020.66;5084105;28;20016;-74
2023/03/11 09:31:45;;;;;;;5.97;1.35;;;;;;;5.84;nan;98997.38;5078346;28;20055;-77
2023/03/11 09:34:11;;;;;;;2.58;0.70;;;;;;;5.97;nan;99035.56;5085545;28;20078;-77
2023/03/11 09:36:39;;;;;;;5.57;0.65;;;;;;;5.80;nan;99022.34;5076117;28;20614;-76
2023/03/11 09:39:05;;;;;;;6.22;0.73;;;;;;;5.80;nan;99027.59;5083492;28;20064;-74
2023/03/11 09:41:37;;;;;;;5.13;0.70;;;;;;;5.92;nan;99035.41;5081900;28;20435;-74
2023/03/11 09:44:38;;;;;;;5.65;1.00;;;;;;;6.01;nan;99026.25;5084978;28;20433;-75
2023/03/11 09:47:24;;;;;;;6.20;0.70;;;;;;;6.03;nan;99018.16;5050094;28;20464;-78
2023/03/11 09:50:08;;;;;;;0.30;0.28;;;;;;;6.03;nan;99016.34;5047298;28;20122;-70
2023/03/11 09:52:36;;;;;;;2.33;0.70;;;;;;;6.00;nan;99014.19;5081080;28;20036;-69
2023/03/11 09:55:05;;;;;;;1.95;0.60;;;;;;;6.01;nan;99007.97;5077884;28;20039;-70
2023/03/11 09:57:36;;;;;;;1.43;0.50;;;;;;;6.05;nan;99019.53;5080551;28;20054;-75
2023/03/11 10:00:04;;;;;;;4.45;0.60;;;;;;;6.10;nan;99027.47;5082768;28;20283;-77
2023/03/11 10:02:31;;;;;;;6.60;0.80;;;;;;;6.12;nan;99048.94;5082485;28;20090;-74
2023/03/11 10:05:12;;;;;;;2.75;1.05;;;;;;;6.15;nan;99051.13;5085443;28;20024;-74
2023/03/11 10:07:40;;;;;;;5.82;1.25;;;;;;;6.23;nan;99049.19;5082448;28;20687;-74
2023/03/11 10:10:10;;;;;;;6.93;1.50;;;;;;;6.18;nan;99016.69;5079572;28;20035;-73
2023/03/11 10:12:54;;;;;;;3.72;1.02;;;;;;;6.28;nan;99026.53;5078418;28;20024;-75
2023/03/11 10:15:37;;;;;;;2.90;0.95;;;;;;;6.33;nan;99021.41;5094036;28;20107;-75
2023/03/11 10:18:21;;;;;;;3.95;0.90;;;;;;;6.37;nan;99027.78;5083453;28;20068;-74
2023/03/11 10:21:29;;;;;;;4.03;1.20;;;;;;;6.22;nan;99008.38;5079468;28;20033;-74
2023/03/11 10:24:13;;;;;;;4.25;1.73;;;;;;;6.49;nan;99038.22;5066990;28;20044;-75
2023/03/11 10:26:53;;;;;;;7.85;1.20;;;;;;;6.20;nan;98985.06;5081962;28;20542;-75
2023/03/11 10:29:29;;;;;;;4.30;1.42;;;;;;;6.26;nan;98992.00;5086018;28;20474;-74
2023/03/11 10:32:24;;;;;;;10.18;2.75;;;;;;;6.57;nan;99018.75;5081843;28;20028;-74
2023/03/11 10:34:56;;;;;;;11.20;1.52;;;;;;;6.55;nan;99007.72;5079848;28;20046;-75
2023/03/11 10:37:36;;;;;;;10.07;2.17;;;;;;;6.59;nan;99035.78;5081638;28;20119;-74
2023/03/11 10:40:18;;;;;;;12.07;2.45;;;;;;;6.48;nan;99031.38;5094369;27;20082;-75
2023/03/11 10:42:45;;;;;;;8.63;1.75;;;;;;;6.59;nan;99043.63;5077097;28;20498;-74
2023/03/11 10:45:14;;;;;;;3.45;1.17;;;;;;;6.54;nan;99054.00;5083812;28;20078;-76
2023/03/11 10:47:39;;;;;;;7.03;1.52;;;;;;;6.48;nan;99044.47;5082192;28;20032;-76
2023/03/11 10:50:05;;;;;;;1.92;1.40;;;;;;;6.44;nan;99045.97;5083449;28;20538;-74
2023/03/11 10:52:31;;;;;;;3.15;1.50;;;;;;;6.44;nan;99045.97;5076458;28;20063;-74
2023/03/11 10:55:01;;;;;;;2.70;1.40;;;;;;;6.44;nan;99058.22;5078642;28;20056;-75
2023/03/11 10:57:35;;;;;;;7.97;1.77;;;;;;;6.42;nan;99047.19;5084133;28;20031;-75
2023/03/11 11:00:16;;;;;;;4.88;1.63;;;;;;;6.41;nan;99041.19;5078900;28;20533;-74
2023/03/11 11:02:56;;;;;;;5.25;2.25;;;;;;;6.48;nan;99070.59;5080339;28;20040;-74
2023/03/11 11:05:31;;;;;;;7.22;1.80;;;;;;;6.53;nan;99072.53;5076229;28;20125;-75
2023/03/11 11:08:08;;;;;;;10.82;3.72;;;;;;;6.51;nan;99067.56;5080934;28;20029;-74
2023/03/11 11:10:35;;;;;;;6.47;1.80;;;;;;;6.49;nan;99064.38;5080706;28;20028;-75
2023/03/11 11:13:17;;;;;;;5.35;1.70;;;;;;;6.51;nan;99061.50;5079917;28;20141;-73
2023/03/11 11:15:53;;;;;;;5.15;1.55;;;;;;;6.15;nan;99017.16;5078603;28;20477;-74
2023/03/11 11:18:23;;;;;;;6.60;2.03;;;;;;;6.51;nan;99058.88;5077147;28;20039;-74
2023/03/11 11:21:03;;;;;;;4.57;2.20;;;;;;;6.49;nan;99056.53;5083219;28;20115;-74
2023/03/11 11:23:36;;;;;;;4.97;2.42;;;;;;;6.50;nan;99058.09;5096800;28;20040;-74
2023/03/11 11:26:05;;;;;;;9.40;3.10;;;;;;;6.56;nan;99080.72;5084886;28;20024;-74
2023/03/11 11:28:32;;;;;;;5.43;2.22;;;;;;;6.65;nan;99088.19;5087918;28;20024;-74
2023/03/11 11:31:04;;;;;;;6.18;2.05;;;;;;;6.59;nan;99080.25;5080710;28;20560;-74
2023/03/11 11:33:31;;;;;;;7.13;2.60;;;;;;;6.67;nan;99071.25;5086859;28;20058;-74
2023/03/11 11:36:00;;;;;;;8.85;2.58;;;;;;;6.75;nan;99068.28;5085780;28;20445;-74
2023/03/11 11:38:28;;;;;;;4.22;1.92;;;;;;;6.72;nan;99055.66;5084177;28;20086;-74
2023/03/11 11:40:55;;;;;;;6.07;1.75;;;;;;;6.76;nan;99077.72;5081306;28;20037;-74
2023/03/11 11:43:44;;;;;;;5.57;2.10;;;;;;;6.80;nan;99075.44;5083860;28;20034;-74
2023/03/11 11:46:26;;;;;;;8.45;1.83;;;;;;;6.81;nan;99054.25;5071941;28;20048;-74
2023/03/11 11:49:07;;;;;;;5.50;1.90;;;;;;;6.77;nan;99055.75;5084633;28;20107;-74
2023/03/11 11:51:39;;;;;;;5.30;1.73;;;;;;;6.84;nan;99078.38;5085286;28;20036;-73
2023/03/11 11:54:23;;;;;;;10.38;2.33;;;;;;;6.79;nan;99076.44;5081668;28;20134;-73
2023/03/11 11:56:49;;;;;;;9.98;2.50;;;;;;;6.69;nan;99047.47;5083930;28;20036;-75
2023/03/11 11:59:20;;;;;;;4.80;1.75;;;;;;;6.69;nan;99061.34;5080076;28;20028;-74